Time;durP1;ratioP1;P1;durP2;ratioP2;P2;SDS_P1;SDS_P2;PMS_P1;PMS_P2;Temp;Humidity;BMP_temperature;BMP_pressure;BME280_temperature;BME280_humidity;BME280_pressure;Samples;Min_cycle;Max_cycle;Signal;HPM_P1;HPM_P2
2022/06/13 00:00:56;;;;;;;2.70;1.07;;;;;;;17.83;71.91;101194.53;5074979;28;20465;-73
2022/06/13 00:03:22;;;;;;;2.30;1.23;;;;;;;17.80;72.89;101184.25;5075021;28;20441;-73
2022/06/13 00:05:49;;;;;;;5.37;1.37;;;;;;;17.81;73.18;101185.84;5075010;28;20524;-73
2022/06/13 00:08:17;;;;;;;4.30;1.07;;;;;;;17.77;71.85;101182.19;5074618;28;20498;-73
2022/06/13 00:10:44;;;;;;;1.17;0.70;;;;;;;17.66;71.62;101178.19;5074780;28;20544;-73
2022/06/13 00:13:10;;;;;;;1.50;0.77;;;;;;;17.59;72.86;101177.94;5074437;28;20539;-73
2022/06/13 00:15:37;;;;;;;3.20;1.10;;;;;;;17.56;72.70;101178.59;5074481;28;20480;-73
2022/06/13 00:18:05;;;;;;;1.47;1.07;;;;;;;17.52;72.46;101178.47;5076103;28;20477;-74
2022/06/13 00:20:31;;;;;;;1.27;0.97;;;;;;;17.51;73.36;101173.31;5074344;28;20583;-74
2022/06/13 00:22:58;;;;;;;3.57;1.10;;;;;;;17.52;73.68;101172.19;5074287;28;20488;-72
2022/06/13 00:25:26;;;;;;;1.70;1.10;;;;;;;17.45;73.08;101167.25;5074533;28;20540;-70
2022/06/13 00:27:53;;;;;;;2.80;1.40;;;;;;;17.31;73.99;101172.16;5074243;28;20972;-75
2022/06/13 00:30:20;;;;;;;2.57;0.87;;;;;;;17.22;73.74;101172.25;5074375;28;20528;-75
2022/06/13 00:32:46;;;;;;;2.97;1.57;;;;;;;17.20;73.74;101165.47;5074108;28;21009;-73
2022/06/13 00:35:13;;;;;;;1.43;0.93;;;;;;;17.15;73.99;101163.75;5074032;28;21116;-74
2022/06/13 00:37:40;;;;;;;6.73;1.20;;;;;;;17.04;74.64;101159.75;5074021;28;20442;-74
2022/06/13 00:40:08;;;;;;;1.97;0.93;;;;;;;17.01;75.49;101157.72;5073948;28;20441;-74
2022/06/13 00:42:35;;;;;;;2.30;1.00;;;;;;;17.01;75.86;101150.28;5073887;28;20900;-74
2022/06/13 00:45:19;;;;;;;2.90;0.93;;;;;;;17.03;75.40;101155.44;5074163;28;20445;-73
2022/06/13 00:47:48;;;;;;;2.10;1.03;;;;;;;17.01;75.75;101157.72;5074146;28;20453;-73
2022/06/13 00:50:20;;;;;;;13.23;1.60;;;;;;;17.02;75.47;101153.81;5073964;28;20467;-73
2022/06/13 00:52:50;;;;;;;2.50;1.30;;;;;;;16.94;75.82;101158.22;5073782;28;20513;-73
2022/06/13 00:55:23;;;;;;;1.83;1.17;;;;;;;16.92;76.60;101154.22;5073886;28;20513;-74
2022/06/13 00:57:51;;;;;;;1.30;0.90;;;;;;;16.92;76.39;101157.75;5074197;28;20450;-73
2022/06/13 01:00:20;;;;;;;4.10;1.33;;;;;;;16.89;76.78;101159.19;5073589;28;20994;-73
2022/06/13 01:02:49;;;;;;;2.30;1.37;;;;;;;16.91;77.22;101167.09;5073618;28;20449;-73
2022/06/13 01:05:20;;;;;;;2.03;1.17;;;;;;;16.89;77.24;101161.94;5073494;28;20449;-73
2022/06/13 01:07:47;;;;;;;7.03;1.17;;;;;;;16.93;77.32;101169.50;5073562;28;20871;-73
2022/06/13 01:13:02;;;;;;;1.60;1.50;;;;;;;16.97;77.35;101167.72;5073866;28;20405;-73
2022/06/13 01:15:44;;;;;;;1.43;0.83;;;;;;;16.97;76.63;101163.03;5073665;28;20461;-73
2022/06/13 01:18:26;;;;;;;7.33;1.17;;;;;;;16.97;77.17;101162.22;5073614;28;20524;-73
2022/06/13 01:21:07;;;;;;;4.83;1.63;;;;;;;16.96;77.85;101166.91;5073268;28;20516;-73
2022/06/13 01:23:49;;;;;;;2.70;1.40;;;;;;;16.94;77.99;101168.34;5073554;28;20505;-73
2022/06/13 01:26:58;;;;;;;1.37;0.80;;;;;;;16.83;78.77;101171.47;5073172;28;20438;-73
2022/06/13 01:29:51;;;;;;;1.97;1.00;;;;;;;16.84;78.73;101167.59;5073438;28;20468;-73
2022/06/13 01:32:29;;;;;;;1.93;1.00;;;;;;;16.85;78.92;101165.66;5069301;28;20473;-73
2022/06/13 01:35:10;;;;;;;1.20;0.80;;;;;;;16.86;78.91;101170.78;5072997;28;20551;-73
2022/06/13 01:37:47;;;;;;;4.10;1.20;;;;;;;16.82;78.30;101163.56;5073159;28;20860;-73
2022/06/13 01:40:23;;;;;;;1.67;0.93;;;;;;;16.76;78.65;101160.22;5073251;28;20424;-74
2022/06/13 01:43:01;;;;;;;2.30;1.23;;;;;;;16.71;79.38;101156.84;5073043;28;20970;-73
2022/06/13 01:45:40;;;;;;;1.83;1.10;;;;;;;16.62;79.69;101154.16;5073272;28;20426;-73
2022/06/13 01:48:15;;;;;;;1.87;0.73;;;;;;;16.56;77.65;101145.31;5073243;28;20425;-73
2022/06/13 01:50:49;;;;;;;2.70;1.00;;;;;;;16.45;76.71;101151.47;5072857;28;20548;-73
2022/06/13 01:53:23;;;;;;;2.60;0.90;;;;;;;16.34;77.02;101156.50;5073187;28;20520;-73
2022/06/13 01:55:57;;;;;;;1.30;1.00;;;;;;;16.22;79.28;101151.69;5073125;28;20460;-73
2022/06/13 01:58:31;;;;;;;4.63;1.63;;;;;;;16.17;81.32;101157.34;5073142;28;20462;-73
2022/06/13 02:01:04;;;;;;;2.30;1.37;;;;;;;16.22;81.57;101157.16;5073084;28;20548;-73
2022/06/13 02:03:39;;;;;;;4.60;1.17;;;;;;;16.26;81.51;101157.31;5072793;28;20870;-73
2022/06/13 02:06:13;;;;;;;2.03;1.30;;;;;;;16.21;82.02;101150.09;5073083;28;20418;-73
2022/06/13 02:08:44;;;;;;;1.40;1.00;;;;;;;16.26;82.37;101166.31;5073069;28;20519;-73
2022/06/13 02:11:25;;;;;;;2.27;1.17;;;;;;;16.32;81.18;101186.06;5072975;28;20462;-72
2022/06/13 02:13:57;;;;;;;1.70;1.37;;;;;;;16.30;81.16;101182.88;5073242;28;20465;-72
2022/06/13 02:16:27;;;;;;;2.50;1.70;;;;;;;16.27;81.70;101176.13;5077083;28;20800;-73
2022/06/13 02:19:01;;;;;;;2.87;1.50;;;;;;;16.19;82.28;101185.13;5076691;28;20445;-73
2022/06/13 02:21:44;;;;;;;2.60;1.73;;;;;;;16.20;82.53;101178.53;5076618;28;20484;-73
2022/06/13 02:24:15;;;;;;;2.20;1.00;;;;;;;16.13;82.38;101184.50;5076863;28;20913;-73
2022/06/13 02:26:46;;;;;;;3.77;1.73;;;;;;;16.12;82.46;101187.56;5076861;28;20414;-73
2022/06/13 02:29:17;;;;;;;4.23;1.30;;;;;;;16.10;83.07;101179.69;5076850;28;20433;-73
2022/06/13 02:31:48;;;;;;;5.20;1.33;;;;;;;16.13;83.37;101184.50;5076724;28;20469;-73
2022/06/13 02:34:19;;;;;;;1.70;1.20;;;;;;;16.11;82.99;101180.47;5076644;28;20544;-73
2022/06/13 02:36:53;;;;;;;1.57;1.23;;;;;;;16.14;81.94;101186.09;5076621;28;20440;-73
2022/06/13 02:39:25;;;;;;;6.13;1.40;;;;;;;16.10;82.09;101184.34;5076620;28;20516;-73
2022/06/13 02:41:56;;;;;;;1.80;1.10;;;;;;;16.06;82.07;101173.25;5076528;28;20548;-73
2022/06/13 02:44:28;;;;;;;2.20;1.20;;;;;;;16.08;81.96;101175.69;5076586;28;20512;-73
2022/06/13 02:46:59;;;;;;;1.57;1.10;;;;;;;16.01;81.91;101175.34;5076596;28;20520;-73
2022/06/13 02:49:32;;;;;;;2.07;1.30;;;;;;;15.96;82.27;101176.31;5076330;28;20445;-73
2022/06/13 02:52:06;;;;;;;5.60;1.63;;;;;;;16.02;81.85;101187.88;5076339;28;20552;-70
2022/06/13 02:54:39;;;;;;;1.23;0.80;;;;;;;16.00;81.43;101184.69;5076256;28;20468;-70
2022/06/13 02:57:27;;;;;;;3.33;1.10;;;;;;;15.98;81.68;101176.00;5075985;28;21002;-73
2022/06/13 03:00:15;;;;;;;4.67;1.13;;;;;;;15.94;82.57;101169.56;5075931;28;20520;-74
2022/06/13 03:02:53;;;;;;;2.03;1.00;;;;;;;15.98;82.63;101179.56;5075954;28;20434;-75
2022/06/13 03:05:42;;;;;;;2.63;1.20;;;;;;;16.01;82.24;101178.09;5076105;28;20421;-75
2022/06/13 03:08:20;;;;;;;1.80;1.20;;;;;;;15.98;82.13;101181.44;5076053;28;20528;-75
2022/06/13 03:10:52;;;;;;;1.87;1.17;;;;;;;15.94;82.11;101177.75;5075923;28;20982;-75
2022/06/13 03:13:30;;;;;;;3.30;1.50;;;;;;;15.92;82.11;101171.81;5075633;28;20845;-74
2022/06/13 03:16:02;;;;;;;2.73;1.33;;;;;;;15.88;82.69;101177.94;5075863;28;20469;-75
2022/06/13 03:18:40;;;;;;;2.60;1.23;;;;;;;15.91;83.55;101186.63;5075835;28;20524;-75
2022/06/13 03:21:13;;;;;;;2.57;1.20;;;;;;;15.96;82.77;101187.25;5075363;28;20491;-75
2022/06/13 03:23:45;;;;;;;2.00;1.33;;;;;;;15.97;82.79;101193.50;5075873;28;20422;-75
2022/06/13 03:26:16;;;;;;;1.70;1.07;;;;;;;15.92;82.43;101194.47;5075664;28;20508;-75
2022/06/13 03:28:48;;;;;;;1.37;1.07;;;;;;;15.89;82.84;101187.75;5075722;28;20442;-75
2022/06/13 03:31:20;;;;;;;3.40;1.87;;;;;;;15.81;82.75;101188.56;5075657;28;20552;-75
2022/06/13 03:33:53;;;;;;;3.23;1.47;;;;;;;15.80;82.40;101181.47;5075731;28;20516;-75
2022/06/13 03:36:26;;;;;;;2.40;1.60;;;;;;;15.71;82.26;101188.84;5075274;28;20473;-75
2022/06/13 03:39:00;;;;;;;3.47;1.50;;;;;;;15.71;83.64;101198.97;5075361;28;20919;-75
2022/06/13 03:41:32;;;;;;;1.87;1.00;;;;;;;15.72;83.34;101193.22;5075412;28;20480;-75
2022/06/13 03:44:06;;;;;;;4.13;1.70;;;;;;;15.74;83.54;101198.34;5075112;28;20555;-75
2022/06/13 03:46:39;;;;;;;1.80;1.30;;;;;;;15.82;83.05;101194.81;5075063;28;20529;-75
2022/06/13 03:49:13;;;;;;;6.57;1.30;;;;;;;15.83;82.75;101199.94;5075093;28;20805;-75
2022/06/13 03:51:43;;;;;;;1.47;1.00;;;;;;;15.92;82.90;101193.69;5075227;28;20548;-75
2022/06/13 03:54:14;;;;;;;1.90;1.43;;;;;;;15.92;81.84;101199.16;5075222;28;20536;-75
2022/06/13 03:56:47;;;;;;;5.13;1.43;;;;;;;15.84;80.83;101207.00;5074886;28;20468;-75
2022/06/13 03:59:19;;;;;;;2.20;1.07;;;;;;;15.83;79.85;101210.06;5075092;28;20422;-75
2022/06/13 04:01:49;;;;;;;2.10;1.47;;;;;;;15.67;80.26;101198.84;5075041;28;20552;-75
2022/06/13 04:04:18;;;;;;;5.27;1.80;;;;;;;15.63;80.73;101206.03;5074724;28;20898;-75
2022/06/13 04:06:47;;;;;;;0.97;0.87;;;;;;;15.59;79.92;101205.84;5074748;28;20528;-74
2022/06/13 04:09:18;;;;;;;1.40;1.20;;;;;;;15.62;80.81;101215.31;5074889;28;20997;-74
2022/06/13 04:11:54;;;;;;;2.10;1.20;;;;;;;15.64;80.97;101210.38;5074886;28;20560;-74
2022/06/13 04:14:41;;;;;;;8.00;1.70;;;;;;;15.66;80.66;101208.13;5074761;28;20787;-74
2022/06/13 04:17:18;;;;;;;1.73;1.13;;;;;;;15.71;79.94;101209.91;5074848;28;20515;-74
2022/06/13 04:19:54;;;;;;;2.57;1.40;;;;;;;15.68;79.54;101211.38;5074740;28;20440;-74
2022/06/13 04:22:29;;;;;;;4.67;1.77;;;;;;;15.67;79.56;101215.22;5074153;28;20564;-74
2022/06/13 04:25:00;;;;;;;3.83;1.30;;;;;;;15.57;79.64;101201.81;5074685;28;20422;-74
2022/06/13 04:27:32;;;;;;;1.70;1.23;;;;;;;15.60;80.31;101215.66;5074539;28;20432;-74
2022/06/13 04:30:09;;;;;;;2.83;1.97;;;;;;;15.68;80.25;101214.09;5074547;28;20504;-74
2022/06/13 04:32:42;;;;;;;3.10;1.63;;;;;;;15.62;80.28;101212.59;5074541;28;20430;-74
2022/06/13 04:35:09;;;;;;;2.90;1.30;;;;;;;15.53;79.77;101217.25;5074348;28;20548;-75
2022/06/13 04:37:39;;;;;;;2.97;1.00;;;;;;;15.54;80.26;101211.47;5073543;28;20449;-72
2022/06/13 04:40:09;;;;;;;2.50;1.30;;;;;;;15.55;81.60;101223.19;5073880;28;21038;-74
2022/06/13 04:42:40;;;;;;;2.10;1.30;;;;;;;15.64;80.79;101221.31;5074157;28;20524;-74
2022/06/13 04:45:18;;;;;;;2.07;1.30;;;;;;;15.71;80.28;101210.69;5073882;28;20509;-74
2022/06/13 04:47:46;;;;;;;1.83;1.50;;;;;;;15.75;79.81;101208.94;5074137;28;20811;-74
2022/06/13 04:50:17;;;;;;;1.63;1.17;;;;;;;15.78;79.46;101211.03;5073789;28;20438;-74
2022/06/13 04:52:49;;;;;;;4.00;2.17;;;;;;;15.83;79.08;101223.72;5073715;28;20546;-75
2022/06/13 04:55:20;;;;;;;3.20;1.77;;;;;;;15.86;78.63;101223.91;5073879;28;20465;-75
2022/06/13 04:57:47;;;;;;;2.43;1.27;;;;;;;15.74;77.40;101220.19;5073952;28;20512;-74
2022/06/13 05:00:15;;;;;;;2.90;1.73;;;;;;;15.71;78.25;101229.81;5073542;28;20962;-73
2022/06/13 05:02:45;;;;;;;2.87;1.23;;;;;;;15.88;78.37;101235.31;5073872;28;20473;-74
2022/06/13 05:05:30;;;;;;;7.57;1.70;;;;;;;15.95;78.50;101221.19;5073623;28;20970;-73
2022/06/13 05:07:59;;;;;;;2.63;1.67;;;;;;;16.12;76.78;101229.38;5073810;28;20421;-74
2022/06/13 05:10:30;;;;;;;3.10;1.87;;;;;;;16.20;76.15;101222.28;5073668;28;20450;-74
2022/06/13 05:12:57;;;;;;;2.87;1.50;;;;;;;16.14;76.19;101231.78;5073737;28;20423;-74
2022/06/13 05:15:30;;;;;;;5.90;1.77;;;;;;;16.10;75.71;101231.59;5073590;28;20855;-74
2022/06/13 05:18:22;;;;;;;1.83;1.37;;;;;;;16.32;76.19;101232.56;5073687;28;20457;-74
2022/06/13 05:21:05;;;;;;;2.47;1.40;;;;;;;16.49;74.53;101235.25;5073239;28;20480;-73
2022/06/13 05:23:51;;;;;;;2.50;1.33;;;;;;;16.59;72.68;101239.59;5073536;28;20453;-73
2022/06/13 05:26:18;;;;;;;5.50;1.17;;;;;;;16.51;73.24;101233.03;5073279;28;20479;-73
2022/06/13 05:28:45;;;;;;;2.20;1.40;;;;;;;16.58;73.74;101237.97;5073492;28;20527;-72
2022/06/13 05:31:18;;;;;;;3.60;1.30;;;;;;;16.57;74.12;101252.78;5073103;28;20544;-73
2022/06/13 05:33:46;;;;;;;6.43;1.20;;;;;;;16.52;73.55;101264.72;5073516;28;20962;-73
2022/06/13 05:36:16;;;;;;;1.50;1.00;;;;;;;16.57;72.54;101259.06;5073218;28;20487;-73
2022/06/13 05:38:47;;;;;;;10.73;1.63;;;;;;;16.54;73.30;101259.69;5073211;28;20497;-73
2022/06/13 05:41:14;;;;;;;2.00;1.43;;;;;;;16.63;73.52;101256.94;5073278;28;20556;-73
2022/06/13 05:43:41;;;;;;;2.03;1.00;;;;;;;16.52;73.19;101251.03;5073330;28;20437;-73
2022/06/13 05:46:09;;;;;;;1.40;1.00;;;;;;;16.45;71.70;101252.66;5073298;28;20436;-73
2022/06/13 05:48:36;;;;;;;7.50;1.67;;;;;;;16.44;71.89;101262.78;5072806;28;20942;-73
2022/06/13 05:51:03;;;;;;;4.27;1.60;;;;;;;16.32;73.09;101260.69;5073121;28;20552;-73
2022/06/13 05:53:29;;;;;;;2.13;1.70;;;;;;;16.16;72.25;101270.53;5073206;28;20815;-73
2022/06/13 05:56:00;;;;;;;7.23;1.60;;;;;;;16.25;73.07;101268.59;5073165;28;20576;-73
2022/06/13 05:58:27;;;;;;;2.30;1.40;;;;;;;16.35;72.47;101273.72;5073064;28;20508;-74
2022/06/13 06:00:57;;;;;;;3.80;1.63;;;;;;;16.49;73.08;101262.63;5073063;28;20556;-73
2022/06/13 06:03:24;;;;;;;5.30;1.80;;;;;;;16.57;70.42;101275.47;5073106;28;20491;-74
2022/06/13 06:05:52;;;;;;;6.33;1.80;;;;;;;16.70;70.36;101270.16;5072778;28;20974;-74
2022/06/13 06:08:20;;;;;;;2.97;1.80;;;;;;;16.76;69.67;101271.59;5073024;28;20529;-73
2022/06/13 06:10:49;;;;;;;3.00;1.20;;;;;;;16.67;68.82;101274.31;5072989;28;20569;-74
2022/06/13 06:13:17;;;;;;;4.80;1.90;;;;;;;16.64;69.38;101274.97;5072973;28;20449;-74
2022/06/13 06:15:46;;;;;;;3.90;1.43;;;;;;;16.65;69.20;101273.84;5072595;28;20524;-74
2022/06/13 06:18:13;;;;;;;1.77;1.23;;;;;;;16.50;69.27;101266.16;5074409;28;20524;-75
2022/06/13 06:20:40;;;;;;;1.63;1.10;;;;;;;16.53;68.41;101270.97;5072428;28;20939;-74
2022/06/13 06:23:08;;;;;;;2.70;1.33;;;;;;;16.50;68.69;101263.41;5072669;28;20421;-75
2022/06/13 06:25:35;;;;;;;1.80;1.50;;;;;;;16.48;67.33;101262.94;5072792;28;20442;-70
2022/06/13 06:28:02;;;;;;;3.10;1.70;;;;;;;16.46;67.03;101265.19;5072865;28;20444;-71
2022/06/13 06:30:30;;;;;;;1.50;0.90;;;;;;;16.48;66.85;101268.41;5072767;28;20544;-71
2022/06/13 06:32:58;;;;;;;2.90;1.20;;;;;;;16.43;67.87;101257.66;5072567;28;20516;-74
2022/06/13 06:35:26;;;;;;;1.97;1.10;;;;;;;16.40;67.89;101262.63;5072627;28;21017;-74
2022/06/13 06:37:54;;;;;;;3.53;1.30;;;;;;;16.51;67.15;101278.69;5072620;28;20480;-74
2022/06/13 06:40:23;;;;;;;6.00;1.30;;;;;;;16.55;67.35;101276.91;5072681;28;20441;-72
2022/06/13 06:42:50;;;;;;;3.27;1.20;;;;;;;16.61;67.81;101272.91;5072434;28;20823;-72
2022/06/13 06:45:17;;;;;;;3.23;1.93;;;;;;;16.47;66.54;101267.63;5072670;28;20528;-73
2022/06/13 06:47:45;;;;;;;4.63;1.33;;;;;;;16.49;66.30;101256.34;5072648;28;20495;-73
2022/06/13 06:50:14;;;;;;;2.30;0.97;;;;;;;16.57;67.90;101239.91;5072530;28;20445;-73
2022/06/13 06:52:42;;;;;;;2.00;1.20;;;;;;;16.67;67.07;101243.44;5072734;28;20440;-76
2022/06/13 07:00:46;;;;;;;3.30;1.47;;;;;;;16.76;63.45;101250.50;5074090;28;20444;-73
2022/06/13 07:03:15;;;;;;;4.83;1.23;;;;;;;16.79;63.47;101247.13;5076347;28;20520;-73
2022/06/13 07:05:41;;;;;;;1.50;1.00;;;;;;;17.03;61.73;101260.25;5076219;28;20461;-74
2022/06/13 07:08:08;;;;;;;1.70;0.97;;;;;;;17.15;61.27;101251.34;5075791;28;20524;-73
2022/06/13 07:10:35;;;;;;;1.73;0.90;;;;;;;17.35;61.83;101249.78;5076053;28;20548;-77
2022/06/13 07:13:02;;;;;;;0.73;0.50;;;;;;;17.54;58.56;101263.06;5075752;28;20506;-74
2022/06/13 07:15:29;;;;;;;1.93;1.20;;;;;;;17.67;56.44;101263.97;5075620;28;20952;-74
2022/06/13 07:17:55;;;;;;;0.83;0.63;;;;;;;17.80;55.71;101269.22;5075989;28;20520;-73
2022/06/13 07:20:23;;;;;;;1.30;0.80;;;;;;;17.76;55.83;101268.28;5075879;28;20897;-73
2022/06/13 07:22:52;;;;;;;1.33;0.80;;;;;;;17.70;57.02;101266.81;5076169;28;20430;-73
2022/06/13 07:25:21;;;;;;;1.67;0.87;;;;;;;17.71;56.20;101267.63;5075848;28;20448;-73
2022/06/13 07:27:48;;;;;;;0.90;0.63;;;;;;;17.59;56.10;101260.13;5075526;28;20442;-74
2022/06/13 07:30:16;;;;;;;2.40;0.90;;;;;;;17.67;57.24;101269.44;5075709;28;20536;-73
2022/06/13 07:32:44;;;;;;;4.13;1.13;;;;;;;17.68;55.89;101263.63;5075402;28;20954;-73
2022/06/13 07:35:13;;;;;;;3.70;1.30;;;;;;;17.65;55.75;101265.06;5075272;28;20453;-74
2022/06/13 07:40:29;;;;;;;3.97;1.27;;;;;;;17.48;55.98;101269.84;5057326;28;20458;-73
2022/06/13 07:42:59;;;;;;;1.30;0.80;;;;;;;17.54;56.55;101272.09;5075242;28;20442;-73
2022/06/13 07:45:28;;;;;;;7.60;0.90;;;;;;;17.61;56.85;101261.41;5075473;28;20518;-73
2022/06/13 07:47:56;;;;;;;4.57;1.17;;;;;;;17.69;56.23;101273.44;5075430;28;20434;-73
2022/06/13 07:50:25;;;;;;;1.30;0.80;;;;;;;17.51;56.77;101269.19;5075216;28;20479;-72
2022/06/13 07:52:54;;;;;;;3.20;0.83;;;;;;;17.48;57.59;101270.66;5075026;28;20517;-73
2022/06/13 07:55:22;;;;;;;6.90;0.80;;;;;;;17.65;57.24;101267.81;5075406;28;20536;-73
2022/06/13 07:57:49;;;;;;;2.10;0.93;;;;;;;17.79;58.09;101270.34;5074862;28;20520;-73
2022/06/13 08:00:21;;;;;;;5.73;1.17;;;;;;;17.63;56.36;101275.59;5074743;28;20904;-74
2022/06/13 08:02:48;;;;;;;4.17;1.13;;;;;;;17.56;57.34;101271.75;5075209;28;20422;-74
2022/06/13 08:05:15;;;;;;;1.30;0.80;;;;;;;17.51;58.67;101269.19;5075089;28;20540;-74
2022/06/13 08:07:42;;;;;;;1.43;0.77;;;;;;;17.45;56.70;101270.53;5075059;28;20441;-74
2022/06/13 08:10:10;;;;;;;2.00;0.87;;;;;;;17.57;57.30;101281.56;5074887;28;20528;-73
2022/06/13 08:12:38;;;;;;;1.07;0.63;;;;;;;17.63;57.98;101278.31;5073738;28;20463;-73
2022/06/13 08:15:05;;;;;;;3.77;1.60;;;;;;;17.58;57.13;101275.78;5074865;28;20445;-74
2022/06/13 08:17:32;;;;;;;5.20;1.03;;;;;;;17.70;58.65;101269.56;5074716;28;20564;-74
2022/06/13 08:19:58;;;;;;;4.17;1.40;;;;;;;17.79;58.60;101264.84;5074263;28;20854;-74
2022/06/13 08:22:25;;;;;;;2.30;0.87;;;;;;;18.02;57.39;101268.09;5074180;28;20504;-73
2022/06/13 08:24:51;;;;;;;8.83;1.23;;;;;;;18.22;55.78;101260.97;5074378;28;20955;-74
2022/06/13 08:27:19;;;;;;;1.63;1.00;;;;;;;18.37;54.86;101265.84;5074545;28;20528;-74
2022/06/13 08:29:46;;;;;;;0.77;0.57;;;;;;;18.68;54.87;101267.31;5074563;28;20441;-73
2022/06/13 08:32:14;;;;;;;5.00;1.00;;;;;;;18.93;50.46;101270.16;5074437;28;20458;-76
2022/06/13 08:34:40;;;;;;;2.57;1.10;;;;;;;19.17;50.58;101289.41;5074173;28;20538;-74
2022/06/13 08:37:07;;;;;;;4.73;0.93;;;;;;;19.31;49.27;101278.88;5074626;28;20476;-74
2022/06/13 08:39:34;;;;;;;1.83;1.00;;;;;;;19.29;49.83;101275.66;5074060;28;20939;-73
2022/06/13 08:42:06;;;;;;;10.23;1.37;;;;;;;19.42;50.69;101282.75;5074299;28;20461;-74
2022/06/13 08:44:43;;;;;;;1.30;0.77;;;;;;;19.54;50.33;101284.72;5074077;28;20911;-74
2022/06/13 08:47:21;;;;;;;1.40;0.93;;;;;;;19.39;50.11;101279.91;5074453;28;20512;-74
2022/06/13 08:50:02;;;;;;;6.10;1.30;;;;;;;19.27;50.09;101283.47;5074520;28;20435;-74
2022/06/13 08:52:33;;;;;;;5.20;0.83;;;;;;;18.95;50.43;101292.56;5073881;28;20483;-74
2022/06/13 08:55:10;;;;;;;1.20;0.63;;;;;;;18.88;51.47;101287.63;5074135;28;20911;-74
2022/06/13 08:57:40;;;;;;;1.43;0.83;;;;;;;19.25;50.41;101290.44;5073958;28;20856;-74
2022/06/13 09:00:14;;;;;;;2.50;1.33;;;;;;;19.45;50.14;101299.72;5074125;28;20422;-73
2022/06/13 09:02:48;;;;;;;1.60;1.00;;;;;;;19.42;47.81;101293.75;5074377;28;20429;-75
2022/06/13 09:05:20;;;;;;;3.03;1.17;;;;;;;19.18;48.63;101293.75;5073674;28;20918;-76
2022/06/13 09:07:52;;;;;;;1.43;0.90;;;;;;;19.08;49.60;101299.66;5074018;28;20442;-74
2022/06/13 09:10:27;;;;;;;4.50;1.50;;;;;;;18.99;49.27;101296.22;5073783;28;20481;-73
2022/06/13 09:12:58;;;;;;;2.20;1.30;;;;;;;18.64;50.22;101291.91;5073865;28;20431;-74
2022/06/13 09:15:32;;;;;;;1.30;1.10;;;;;;;18.52;53.61;101291.84;5073739;28;20607;-74
2022/06/13 09:18:05;;;;;;;5.07;1.97;;;;;;;18.50;51.85;101290.56;5073787;28;20461;-74
2022/06/13 09:20:38;;;;;;;2.67;1.23;;;;;;;18.64;51.90;101283.66;5073309;28;20573;-74
2022/06/13 09:23:15;;;;;;;3.63;1.50;;;;;;;18.62;54.29;101274.16;5072967;28;20917;-74
2022/06/13 09:25:47;;;;;;;2.40;0.93;;;;;;;18.69;52.93;101281.84;5073597;28;20467;-74
2022/06/13 09:28:20;;;;;;;8.60;1.73;;;;;;;18.73;51.67;101280.88;5073531;28;20417;-74
2022/06/13 09:30:53;;;;;;;3.90;1.93;;;;;;;18.87;50.92;101280.56;5073088;28;20469;-74
2022/06/13 09:33:23;;;;;;;1.10;0.87;;;;;;;18.84;51.97;101273.78;5073075;28;20948;-74
2022/06/13 09:35:59;;;;;;;3.33;1.03;;;;;;;18.83;51.11;101274.94;5073700;28;20520;-74
2022/06/13 09:38:28;;;;;;;0.90;0.70;;;;;;;18.89;51.47;101272.75;5073029;28;20469;-74
2022/06/13 09:41:28;;;;;;;6.53;1.57;;;;;;;18.99;49.58;101272.34;5072979;28;20555;-74
2022/06/13 09:44:10;;;;;;;3.37;0.90;;;;;;;19.01;50.18;101274.75;5073313;28;20434;-74
2022/06/13 09:46:45;;;;;;;3.63;1.00;;;;;;;19.04;49.82;101258.38;5073339;28;20466;-75
2022/06/13 09:49:18;;;;;;;1.77;1.13;;;;;;;19.18;49.24;101270.97;5072992;28;20512;-73
2022/06/13 09:51:56;;;;;;;2.57;1.00;;;;;;;19.30;49.05;101273.72;5073093;28;20520;-75
2022/06/13 09:54:30;;;;;;;3.23;1.10;;;;;;;19.39;47.99;101274.44;5072975;28;20972;-74
2022/06/13 09:57:05;;;;;;;1.83;0.90;;;;;;;19.41;49.99;101261.94;5073163;28;20554;-74
2022/06/13 09:59:55;;;;;;;11.50;1.47;;;;;;;19.49;48.68;101259.41;5073204;28;20516;-74
2022/06/13 10:02:30;;;;;;;1.47;0.80;;;;;;;19.75;48.25;101259.06;5072737;28;21032;-74
2022/06/13 10:05:04;;;;;;;1.67;0.90;;;;;;;19.99;46.55;101261.75;5072980;28;20421;-75
2022/06/13 10:07:42;;;;;;;1.17;1.00;;;;;;;19.96;45.39;101258.88;5073182;28;20516;-74
2022/06/13 10:10:15;;;;;;;3.63;1.10;;;;;;;19.97;47.03;101246.75;5072688;28;20460;-74
2022/06/13 10:12:48;;;;;;;1.20;0.70;;;;;;;20.15;44.96;101239.81;5073076;28;20528;-74
2022/06/13 10:15:27;;;;;;;1.87;1.00;;;;;;;20.15;47.27;101250.81;5073008;28;20426;-74
2022/06/13 10:18:17;;;;;;;1.57;0.77;;;;;;;20.23;44.49;101235.28;5072992;28;20465;-75
2022/06/13 10:20:53;;;;;;;0.93;0.67;;;;;;;20.15;46.03;101248.06;5072707;28;20580;-75
2022/06/13 10:23:33;;;;;;;5.03;0.90;;;;;;;20.18;45.04;101244.59;5072675;28;20472;-75
2022/06/13 10:26:09;;;;;;;2.90;0.90;;;;;;;20.36;44.45;101253.34;5072935;28;20497;-74
2022/06/13 10:29:02;;;;;;;1.67;1.20;;;;;;;20.16;43.97;101247.72;5072957;28;20429;-74
2022/06/13 10:31:43;;;;;;;2.70;0.93;;;;;;;19.90;44.15;101247.34;5072834;28;20465;-74
2022/06/13 10:34:26;;;;;;;2.30;1.07;;;;;;;19.99;44.68;101242.50;5073056;28;20520;-76
2022/06/13 10:37:05;;;;;;;5.73;1.00;;;;;;;20.10;43.08;101249.13;5076633;28;20480;-75
2022/06/13 10:39:32;;;;;;;3.60;1.00;;;;;;;20.21;43.68;101248.63;5076484;28;20513;-75
2022/06/13 10:42:05;;;;;;;1.90;0.80;;;;;;;20.42;43.81;101233.50;5076561;28;20890;-74
2022/06/13 10:44:32;;;;;;;1.73;0.90;;;;;;;20.73;42.45;101234.72;5076448;28;20433;-75
2022/06/13 10:47:05;;;;;;;5.97;0.73;;;;;;;20.81;42.07;101239.28;5076697;28;20442;-74
2022/06/13 10:49:39;;;;;;;1.90;1.13;;;;;;;20.73;42.25;101254.00;5076187;28;20429;-75
2022/06/13 10:52:14;;;;;;;1.83;0.83;;;;;;;20.63;42.92;101229.75;5076173;28;20901;-74
2022/06/13 10:54:47;;;;;;;3.20;1.97;;;;;;;20.58;43.95;101241.00;5076514;28;20460;-75
2022/06/13 10:57:18;;;;;;;2.00;1.17;;;;;;;20.59;45.12;101232.41;5076535;28;20469;-74
2022/06/13 10:59:45;;;;;;;1.43;0.87;;;;;;;20.56;44.95;101237.81;5076111;28;20873;-75
2022/06/13 11:02:25;;;;;;;2.03;0.80;;;;;;;20.59;43.78;101237.13;5076170;28;20461;-74
2022/06/13 11:05:06;;;;;;;2.53;1.00;;;;;;;20.72;44.53;101229.56;5076453;28;20425;-74
2022/06/13 11:07:34;;;;;;;3.63;1.10;;;;;;;20.90;44.35;101237.13;5076070;28;20422;-74
2022/06/13 11:10:02;;;;;;;1.27;0.90;;;;;;;21.24;42.97;101240.31;5076102;28;20448;-74
2022/06/13 11:12:31;;;;;;;1.83;0.93;;;;;;;21.37;43.24;101239.06;5076064;28;20469;-74
2022/06/13 11:23:37;;;;;;;1.20;0.90;;;;;;;22.03;41.97;101229.06;5075751;28;20476;-75
2022/06/13 11:27:39;;;;;;;3.53;1.40;;;;;;;22.57;39.80;101230.13;5075875;28;20434;-75
2022/06/13 11:28:52;;;;;;;1.90;0.73;;;;;;;22.97;39.90;101234.41;5075632;28;20823;-75
2022/06/13 11:31:20;;;;;;;1.07;0.80;;;;;;;23.29;41.12;101246.78;5075780;28;20467;-75
2022/06/13 11:33:47;;;;;;;5.47;0.87;;;;;;;23.79;37.63;101250.28;5075744;28;20524;-75
2022/06/13 11:36:25;;;;;;;2.60;1.10;;;;;;;23.80;37.35;101248.31;5075446;28;20994;-75
2022/06/13 11:38:54;;;;;;;3.43;0.67;;;;;;;24.06;36.32;101239.16;5075651;28;20469;-75
2022/06/13 11:41:23;;;;;;;5.03;1.20;;;;;;;24.14;36.06;101249.16;5075486;28;20457;-75
2022/06/13 11:43:53;;;;;;;1.30;0.63;;;;;;;24.31;35.67;101234.72;5075574;28;20449;-76
2022/06/13 11:46:43;;;;;;;1.50;1.00;;;;;;;24.49;35.87;101239.66;5075203;28;20430;-75
2022/06/13 11:49:29;;;;;;;1.10;0.67;;;;;;;23.68;36.81;101246.56;5075530;28;20516;-75
2022/06/13 11:52:00;;;;;;;2.53;1.07;;;;;;;23.01;37.34;101249.06;5074910;28;20970;-74
2022/06/13 11:54:31;;;;;;;1.90;1.00;;;;;;;22.72;38.45;101261.59;5075318;28;20508;-75
2022/06/13 11:57:21;;;;;;;1.27;0.77;;;;;;;21.83;41.54;101277.94;5075254;28;20429;-74
2022/06/13 11:59:54;;;;;;;0.93;0.63;;;;;;;21.25;43.36;101285.19;5075309;28;20524;-74
2022/06/13 12:02:24;;;;;;;1.93;0.97;;;;;;;20.40;44.48;101293.56;5075102;28;20465;-74
2022/06/13 12:04:55;;;;;;;3.23;0.80;;;;;;;19.93;45.74;101298.91;5075370;28;20907;-78
2022/06/13 12:07:27;;;;;;;0.90;0.53;;;;;;;19.87;46.59;101306.56;5075548;28;20518;-75